Time;durP1;ratioP1;P1;durP2;ratioP2;P2;SDS_P1;SDS_P2;PMS_P1;PMS_P2;Temp;Humidity;BMP_temperature;BMP_pressure;BME280_temperature;BME280_humidity;BME280_pressure;Samples;Min_cycle;Max_cycle;Signal;HPM_P1;HPM_P2
2022/06/01 00:01:33;;;;;;;10.25;9.32;;;11.10;99.90;;;;;;5002230;28;20261;-76
2022/06/01 00:03:59;;;;;;;11.35;8.68;;;11.00;99.90;;;;;;5003345;28;20104;-76
2022/06/01 00:06:26;;;;;;;8.57;7.78;;;11.10;99.90;;;;;;5002608;28;20042;-76
2022/06/01 00:08:52;;;;;;;9.75;8.90;;;11.10;99.90;;;;;;5002076;28;20053;-75
2022/06/01 00:11:17;;;;;;;13.55;9.23;;;11.10;99.90;;;;;;5001711;28;20046;-76
2022/06/01 00:13:43;;;;;;;9.27;8.35;;;11.10;99.90;;;;;;5000492;28;20477;-75
2022/06/01 00:16:09;;;;;;;11.75;8.68;;;11.10;99.90;;;;;;5001303;28;20074;-75
2022/06/01 00:18:36;;;;;;;10.85;9.43;;;11.10;99.90;;;;;;5001908;28;20042;-76
2022/06/01 00:21:04;;;;;;;14.70;8.45;;;11.10;99.90;;;;;;5000421;28;20181;-75
2022/06/01 00:23:30;;;;;;;12.18;9.82;;;11.10;99.90;;;;;;5002292;28;20373;-76
2022/06/01 00:25:58;;;;;;;11.40;9.55;;;11.10;99.90;;;;;;5001967;28;20049;-75
2022/06/01 00:28:24;;;;;;;12.02;10.25;;;11.10;99.90;;;;;;4998477;28;20074;-76
2022/06/01 00:30:49;;;;;;;14.25;10.52;;;11.10;99.90;;;;;;5001236;28;20080;-76
2022/06/01 00:33:15;;;;;;;9.60;7.63;;;11.10;99.90;;;;;;4999539;28;20049;-76
2022/06/01 00:35:40;;;;;;;10.43;9.43;;;11.10;99.90;;;;;;5001389;28;20519;-75
2022/06/01 00:38:06;;;;;;;10.77;9.57;;;11.10;99.90;;;;;;5001384;28;20034;-76
2022/06/01 00:40:32;;;;;;;12.55;9.88;;;11.10;99.90;;;;;;5001302;28;20136;-76
2022/06/01 00:43:00;;;;;;;9.93;8.55;;;11.10;99.90;;;;;;4999421;28;20041;-76
2022/06/01 00:45:29;;;;;;;10.32;8.13;;;11.10;99.90;;;;;;5000876;28;20544;-75
2022/06/01 00:47:55;;;;;;;9.05;8.23;;;11.10;99.90;;;;;;5001142;28;20121;-76
2022/06/01 00:50:26;;;;;;;9.45;8.60;;;11.10;99.90;;;;;;5001223;28;20075;-76
2022/06/01 00:53:10;;;;;;;10.35;9.35;;;11.10;99.90;;;;;;5000848;28;20045;-75
2022/06/01 00:55:42;;;;;;;13.18;10.43;;;11.10;99.90;;;;;;5000913;28;20057;-76
2022/06/01 00:58:16;;;;;;;10.30;9.27;;;11.10;99.90;;;;;;4997992;28;20448;-75
2022/06/01 01:00:42;;;;;;;11.75;9.88;;;11.10;99.90;;;;;;5001015;28;20235;-75
2022/06/01 01:03:10;;;;;;;11.35;10.25;;;11.10;99.90;;;;;;4979716;23;1080435;-68
2022/06/01 01:05:43;;;;;;;13.25;10.30;;;11.10;99.90;;;;;;5002655;28;20350;-69
2022/06/01 01:08:09;;;;;;;13.50;10.13;;;11.10;99.90;;;;;;5002309;28;20037;-69
2022/06/01 01:10:35;;;;;;;10.25;9.32;;;11.00;99.90;;;;;;5002857;28;20144;-69
2022/06/01 01:13:04;;;;;;;13.68;11.57;;;11.00;99.90;;;;;;5002172;28;20124;-71
2022/06/01 01:15:39;;;;;;;11.57;9.88;;;11.00;99.90;;;;;;5011061;28;20491;-69
2022/06/01 01:18:09;;;;;;;13.10;11.40;;;11.00;99.90;;;;;;5020885;28;20042;-69
2022/06/01 01:20:54;;;;;;;10.45;9.30;;;11.00;99.90;;;;;;5021746;28;20096;-69
2022/06/01 01:23:38;;;;;;;10.88;9.77;;;11.00;99.90;;;;;;5020537;28;20038;-69
2022/06/01 01:26:07;;;;;;;11.73;10.52;;;11.00;99.90;;;;;;5021932;28;20069;-69
2022/06/01 01:28:33;;;;;;;11.93;10.75;;;11.10;99.90;;;;;;5021166;28;20583;-70
2022/06/01 01:31:05;;;;;;;13.30;10.55;;;11.10;99.90;;;;;;5021399;28;20125;-69
2022/06/01 01:33:31;;;;;;;15.77;12.07;;;11.00;99.90;;;;;;5024175;28;20045;-70
2022/06/01 01:36:04;;;;;;;10.98;9.73;;;11.00;99.90;;;;;;5026453;28;20370;-70
2022/06/01 01:38:37;;;;;;;14.80;11.40;;;11.00;99.90;;;;;;5025680;28;20045;-69
2022/06/01 01:41:05;;;;;;;11.93;10.43;;;11.00;99.90;;;;;;5024557;28;20107;-69
2022/06/01 01:43:34;;;;;;;11.60;10.65;;;11.00;99.90;;;;;;5023885;28;20037;-70
2022/06/01 01:45:59;;;;;;;11.43;9.75;;;10.90;99.90;;;;;;5025996;28;20502;-69
2022/06/01 01:48:25;;;;;;;10.90;9.90;;;10.90;99.90;;;;;;5026010;28;20100;-69
2022/06/01 01:50:50;;;;;;;12.60;11.30;;;10.90;99.90;;;;;;5025720;28;20050;-69
2022/06/01 01:53:16;;;;;;;9.98;9.07;;;10.90;99.90;;;;;;5025428;28;20116;-69
2022/06/01 01:56:20;;;;;;;11.77;10.27;;;10.80;99.90;;;;;;5025226;28;20149;-69
2022/06/01 01:59:16;;;;;;;11.82;10.60;;;10.80;99.90;;;;;;5020303;28;20579;-69
2022/06/01 02:02:10;;;;;;;10.13;9.23;;;10.70;99.90;;;;;;5024255;28;20060;-69
2022/06/01 02:08:04;;;;;;;12.98;10.13;;;10.70;99.90;;;;;;5025737;28;20041;-69
2022/06/01 02:13:17;;;;;;;11.68;10.63;;;10.60;99.90;;;;;;5024322;28;20692;-69
2022/06/01 02:15:47;;;;;;;11.43;10.32;;;10.60;99.90;;;;;;5025154;28;20530;-69
2022/06/01 02:18:18;;;;;;;11.88;10.65;;;10.60;99.90;;;;;;5025456;28;20045;-69
2022/06/01 02:20:49;;;;;;;11.03;10.03;;;10.50;99.90;;;;;;5025513;28;20412;-69
2022/06/01 02:23:16;;;;;;;12.23;10.82;;;10.50;99.90;;;;;;5023713;28;20045;-69
2022/06/01 02:25:45;;;;;;;12.07;9.57;;;10.50;99.90;;;;;;5024686;28;20617;-69
2022/06/01 02:28:11;;;;;;;11.20;9.18;;;10.40;99.90;;;;;;5024084;28;20037;-69
2022/06/01 02:30:39;;;;;;;10.90;9.85;;;10.40;99.90;;;;;;5025355;28;20431;-69
2022/06/01 02:33:09;;;;;;;15.95;10.68;;;10.40;99.90;;;;;;5024421;28;20454;-70
2022/06/01 02:35:39;;;;;;;11.02;9.63;;;10.30;99.90;;;;;;5024844;28;20068;-69
2022/06/01 02:38:12;;;;;;;11.80;10.73;;;10.40;99.90;;;;;;5024702;28;20049;-69
2022/06/01 02:40:39;;;;;;;10.05;9.05;;;10.30;99.90;;;;;;5023695;28;20492;-69
2022/06/01 02:43:05;;;;;;;10.80;9.85;;;10.40;99.90;;;;;;5023590;28;20033;-69
2022/06/01 02:45:30;;;;;;;12.35;11.13;;;10.40;99.90;;;;;;5024735;28;20510;-70
2022/06/01 02:47:59;;;;;;;10.85;9.75;;;10.40;99.90;;;;;;5025373;28;20475;-69
2022/06/01 02:50:29;;;;;;;11.65;10.23;;;10.40;99.90;;;;;;5024376;28;20095;-69
2022/06/01 02:52:55;;;;;;;10.05;9.07;;;10.30;99.90;;;;;;5024408;28;20472;-69
2022/06/01 02:55:22;;;;;;;12.20;10.98;;;10.30;99.90;;;;;;5024720;28;20121;-69
2022/06/01 02:57:50;;;;;;;13.85;12.15;;;10.40;99.90;;;;;;5022207;28;20060;-69
2022/06/01 03:00:26;;;;;;;17.02;11.27;;;10.30;99.90;;;;;;5022627;28;20033;-69
2022/06/01 03:02:55;;;;;;;11.73;10.52;;;10.30;99.90;;;;;;5024128;28;20049;-69
2022/06/01 03:05:26;;;;;;;17.52;13.15;;;10.30;99.90;;;;;;5023862;28;20135;-69
2022/06/01 03:07:52;;;;;;;12.27;11.27;;;10.40;99.90;;;;;;5022741;28;20045;-70
2022/06/01 03:10:18;;;;;;;12.85;11.48;;;10.40;99.90;;;;;;5024870;28;20284;-69
2022/06/01 03:12:44;;;;;;;17.58;12.05;;;10.40;99.90;;;;;;5023519;28;20041;-69
2022/06/01 03:15:12;;;;;;;13.63;11.95;;;10.40;99.90;;;;;;5023982;28;20046;-69
2022/06/01 03:17:38;;;;;;;13.40;12.07;;;10.40;99.90;;;;;;5022921;28;20046;-69
2022/06/01 03:20:08;;;;;;;11.77;10.57;;;10.50;99.90;;;;;;5022646;28;20526;-69
2022/06/01 03:22:35;;;;;;;13.30;10.98;;;10.50;99.90;;;;;;5022798;28;20056;-69
2022/06/01 03:25:02;;;;;;;12.32;11.35;;;10.50;99.90;;;;;;5024012;28;20085;-70
2022/06/01 03:27:28;;;;;;;12.55;11.18;;;10.50;99.90;;;;;;5023164;28;20107;-69
2022/06/01 03:29:53;;;;;;;13.68;11.40;;;10.50;99.90;;;;;;5024007;28;20041;-69
2022/06/01 03:32:19;;;;;;;12.27;11.05;;;10.50;99.90;;;;;;5023610;28;20041;-69
2022/06/01 03:34:45;;;;;;;14.00;11.63;;;10.60;99.90;;;;;;5023535;28;20034;-69
2022/06/01 03:37:10;;;;;;;12.77;11.15;;;10.60;99.90;;;;;;5022416;28;20045;-69
2022/06/01 03:39:36;;;;;;;13.80;12.32;;;10.60;99.90;;;;;;5023285;28;20403;-69
2022/06/01 03:42:02;;;;;;;13.13;11.30;;;10.60;99.90;;;;;;5022835;28;20321;-69
2022/06/01 03:47:12;;;;;;;12.52;10.68;;;10.70;99.90;;;;;;5023364;28;20202;-69
2022/06/01 03:49:38;;;;;;;12.70;11.40;;;10.70;99.90;;;;;;5023729;28;20468;-69
2022/06/01 03:52:06;;;;;;;13.63;12.20;;;10.70;99.90;;;;;;5021575;28;20124;-70
2022/06/01 03:54:31;;;;;;;13.68;12.35;;;10.80;99.90;;;;;;5021316;28;20041;-70
2022/06/01 03:56:57;;;;;;;13.18;11.93;;;10.80;99.90;;;;;;5022308;28;20053;-69
2022/06/01 03:59:23;;;;;;;12.80;11.70;;;10.80;99.90;;;;;;5023025;28;20123;-69
2022/06/01 04:01:48;;;;;;;13.27;11.98;;;10.80;99.90;;;;;;5023429;28;20111;-70
2022/06/01 04:04:14;;;;;;;15.90;14.30;;;10.90;99.90;;;;;;5022594;28;20056;-69
2022/06/01 04:06:40;;;;;;;14.07;12.75;;;10.90;99.90;;;;;;5023596;28;20419;-69
2022/06/01 04:09:08;;;;;;;15.80;14.30;;;10.90;99.90;;;;;;5022705;28;20048;-69
2022/06/01 04:11:34;;;;;;;15.00;13.55;;;11.00;99.90;;;;;;5020836;28;20046;-70
2022/06/01 04:13:59;;;;;;;12.55;11.30;;;11.00;99.90;;;;;;5023662;28;20502;-69
2022/06/01 04:16:25;;;;;;;14.32;12.75;;;11.00;99.90;;;;;;5022161;28;20041;-69
2022/06/01 04:18:51;;;;;;;14.00;12.60;;;11.00;99.90;;;;;;5023391;28;20549;-69
2022/06/01 04:21:21;;;;;;;15.52;13.07;;;11.00;99.90;;;;;;5022482;28;20045;-69
2022/06/01 04:23:48;;;;;;;15.02;12.48;;;11.00;99.90;;;;;;5022387;28;20697;-69
2022/06/01 04:26:16;;;;;;;14.60;12.88;;;11.00;99.90;;;;;;5021805;28;20057;-70
2022/06/01 04:28:45;;;;;;;16.50;13.00;;;11.00;99.90;;;;;;5021281;28;20514;-69
2022/06/01 04:31:10;;;;;;;14.07;12.57;;;11.00;99.90;;;;;;5022411;28;20052;-69
2022/06/01 04:33:40;;;;;;;15.02;13.40;;;11.00;99.90;;;;;;5022435;28;20037;-70
2022/06/01 04:36:05;;;;;;;16.27;14.40;;;11.10;99.90;;;;;;5022167;28;20050;-69
2022/06/01 04:38:31;;;;;;;14.48;12.23;;;11.10;99.90;;;;;;5021212;28;20053;-69
2022/06/01 04:40:57;;;;;;;17.02;14.35;;;11.10;99.90;;;;;;5021727;28;20053;-69
2022/06/01 04:43:23;;;;;;;15.73;13.57;;;11.10;99.90;;;;;;5021513;28;20061;-69
2022/06/01 04:45:53;;;;;;;12.50;11.35;;;11.10;99.90;;;;;;5022639;28;20044;-69
2022/06/01 04:48:21;;;;;;;17.02;12.77;;;11.10;99.90;;;;;;5021140;28;20076;-69
2022/06/01 04:50:46;;;;;;;13.02;11.68;;;11.10;99.90;;;;;;5021225;28;20045;-69
2022/06/01 04:53:14;;;;;;;18.55;12.32;;;11.10;99.90;;;;;;5020679;28;20051;-69
2022/06/01 04:55:41;;;;;;;17.65;14.27;;;11.10;99.90;;;;;;5022552;28;20053;-69
2022/06/01 04:58:06;;;;;;;15.93;13.40;;;11.10;99.90;;;;;;5021012;28;20037;-69
2022/06/01 05:00:36;;;;;;;16.42;11.52;;;11.10;99.90;;;;;;5020810;28;20412;-69
2022/06/01 05:03:04;;;;;;;14.20;11.65;;;11.10;99.90;;;;;;5020966;28;20107;-69
2022/06/01 05:05:30;;;;;;;13.60;12.30;;;11.10;99.90;;;;;;5022340;28;20052;-69
2022/06/01 05:07:56;;;;;;;11.65;10.25;;;11.10;99.90;;;;;;5020829;28;20045;-69
2022/06/01 05:10:22;;;;;;;16.77;12.98;;;11.10;99.90;;;;;;5022399;28;20091;-69
2022/06/01 05:12:57;;;;;;;17.33;11.98;;;11.10;99.90;;;;;;5020517;28;20045;-69
2022/06/01 05:15:22;;;;;;;16.98;11.80;;;11.10;99.90;;;;;;5021269;28;20096;-69
2022/06/01 05:17:48;;;;;;;13.02;11.65;;;11.10;99.90;;;;;;5022021;28;20057;-69
2022/06/01 05:20:13;;;;;;;12.70;9.77;;;11.10;99.90;;;;;;5021822;28;20042;-69
2022/06/01 05:22:40;;;;;;;13.25;10.45;;;11.10;99.90;;;;;;5021764;28;20048;-69
2022/06/01 05:25:07;;;;;;;12.27;10.43;;;11.10;99.90;;;;;;5022143;28;20392;-69
2022/06/01 05:27:33;;;;;;;10.82;7.65;;;11.10;99.90;;;;;;5019784;28;20129;-70
2022/06/01 05:29:59;;;;;;;6.15;4.53;;;11.10;99.90;;;;;;5021304;28;20136;-70
2022/06/01 05:32:24;;;;;;;5.22;3.97;;;11.00;99.90;;;;;;5020372;28;20494;-70
2022/06/01 05:34:50;;;;;;;7.28;5.28;;;11.00;99.90;;;;;;5020173;28;20252;-70
2022/06/01 05:37:16;;;;;;;4.95;4.15;;;11.00;99.90;;;;;;5021756;28;20037;-70
2022/06/01 05:39:41;;;;;;;3.67;3.38;;;11.00;99.90;;;;;;5019781;28;20052;-70
2022/06/01 05:42:07;;;;;;;5.65;3.20;;;11.00;99.90;;;;;;5036044;28;20154;-70
2022/06/01 05:44:33;;;;;;;6.25;4.90;;;11.00;99.90;;;;;;5021018;28;20029;-71
2022/06/01 05:47:00;;;;;;;3.95;3.63;;;11.00;99.90;;;;;;5021021;28;20045;-70
2022/06/01 05:49:26;;;;;;;5.95;3.42;;;11.10;99.90;;;;;;5020414;28;20044;-70
2022/06/01 05:51:53;;;;;;;2.42;2.22;;;11.20;99.90;;;;;;5020631;28;20587;-70
2022/06/01 05:54:19;;;;;;;2.90;2.70;;;11.20;99.90;;;;;;5021513;28;20046;-70
2022/06/01 05:56:45;;;;;;;2.90;2.70;;;11.30;99.90;;;;;;5018664;28;20041;-71
2022/06/01 05:59:11;;;;;;;2.72;2.53;;;11.30;99.90;;;;;;5021585;28;20419;-71
2022/06/01 06:01:38;;;;;;;2.80;2.65;;;11.30;99.90;;;;;;5021083;28;20053;-71
2022/06/01 06:04:04;;;;;;;3.90;2.70;;;11.40;99.90;;;;;;5019792;28;20480;-71
2022/06/01 06:06:30;;;;;;;2.25;2.05;;;11.30;99.90;;;;;;5021912;28;20387;-70
2022/06/01 06:09:06;;;;;;;4.35;2.88;;;11.40;99.90;;;;;;5021460;28;20033;-70
2022/06/01 06:11:38;;;;;;;3.22;2.45;;;11.40;99.90;;;;;;5017573;28;20038;-71
2022/06/01 06:14:04;;;;;;;8.15;2.35;;;11.50;99.90;;;;;;5020750;28;20139;-70
2022/06/01 06:16:34;;;;;;;3.10;2.15;;;11.60;99.90;;;;;;5020953;28;20044;-70
2022/06/01 06:19:01;;;;;;;2.85;2.65;;;11.70;99.90;;;;;;5024093;28;20045;-71
2022/06/01 06:21:29;;;;;;;3.15;2.55;;;11.70;99.90;;;;;;5024085;28;20117;-71
2022/06/01 06:24:03;;;;;;;3.17;2.53;;;11.70;99.90;;;;;;5024968;28;20160;-76
2022/06/01 06:26:29;;;;;;;2.88;2.58;;;11.70;99.90;;;;;;5022082;28;20122;-74
2022/06/01 06:28:55;;;;;;;3.00;2.80;;;11.70;99.90;;;;;;5019889;28;20060;-74
2022/06/01 06:31:21;;;;;;;5.82;2.95;;;11.80;99.90;;;;;;5023280;28;20289;-75
2022/06/01 06:33:46;;;;;;;3.45;2.63;;;11.80;99.90;;;;;;5022344;28;20492;-74
2022/06/01 06:36:14;;;;;;;6.47;4.20;;;11.80;99.90;;;;;;5022290;28;20053;-76
2022/06/01 06:38:41;;;;;;;4.32;3.95;;;11.80;99.90;;;;;;5022641;28;20045;-75
2022/06/01 06:41:07;;;;;;;8.63;3.67;;;11.90;99.90;;;;;;5021864;28;20100;-74
2022/06/01 06:43:35;;;;;;;4.57;4.18;;;12.00;99.90;;;;;;5024575;28;20046;-74
2022/06/01 06:46:05;;;;;;;5.90;3.60;;;12.00;99.90;;;;;;5022720;28;20056;-75
2022/06/01 06:48:31;;;;;;;5.18;3.90;;;12.00;99.90;;;;;;5024405;28;20051;-74
2022/06/01 06:50:57;;;;;;;4.15;3.75;;;12.10;99.90;;;;;;5024679;28;20069;-74
2022/06/01 06:53:23;;;;;;;3.88;3.58;;;12.10;99.90;;;;;;5023984;28;20097;-74
2022/06/01 06:55:50;;;;;;;3.90;3.50;;;12.10;99.90;;;;;;5022835;28;20038;-75
2022/06/01 06:58:16;;;;;;;3.60;3.30;;;12.10;99.90;;;;;;5022674;28;20072;-74
2022/06/01 07:00:42;;;;;;;8.02;4.10;;;12.10;99.90;;;;;;5023774;28;20045;-74
2022/06/01 07:03:07;;;;;;;3.75;3.33;;;12.10;99.90;;;;;;5023634;28;20069;-74
2022/06/01 07:08:18;;;;;;;4.18;3.88;;;12.20;99.90;;;;;;5022080;28;20048;-72
2022/06/01 07:10:44;;;;;;;3.60;3.00;;;12.30;99.90;;;;;;5023305;28;20049;-76
2022/06/01 07:13:10;;;;;;;5.03;3.78;;;12.40;99.90;;;;;;5021147;28;20104;-73
2022/06/01 07:15:35;;;;;;;9.38;4.90;;;12.40;99.90;;;;;;5023315;28;20395;-74
2022/06/01 07:18:03;;;;;;;4.93;4.30;;;12.40;99.90;;;;;;5022052;28;20133;-74
2022/06/01 07:20:29;;;;;;;3.80;3.45;;;12.50;99.90;;;;;;5021673;28;20558;-74
2022/06/01 07:22:56;;;;;;;4.78;3.40;;;12.50;99.90;;;;;;5023068;28;20121;-74
2022/06/01 07:25:22;;;;;;;3.42;3.13;;;12.60;99.90;;;;;;5021583;28;20041;-74
2022/06/01 07:27:51;;;;;;;5.53;2.75;;;12.60;99.90;;;;;;5022232;28;20049;-74
2022/06/01 07:30:19;;;;;;;4.50;3.53;;;12.70;99.90;;;;;;5020221;28;20081;-75
2022/06/01 07:32:48;;;;;;;3.47;3.17;;;12.70;99.90;;;;;;5018590;28;20247;-73
2022/06/01 07:35:16;;;;;;;2.55;2.35;;;12.70;99.90;;;;;;5021634;28;20084;-74
2022/06/01 07:43:30;;;;;;;3.65;3.35;;;12.90;99.90;;;;;;4999442;28;20112;-73
2022/06/01 07:45:56;;;;;;;5.65;3.35;;;13.00;99.90;;;;;;5005826;28;20496;-73
2022/06/01 07:48:22;;;;;;;4.18;3.80;;;13.10;99.90;;;;;;5021151;28;20068;-75
2022/06/01 07:50:50;;;;;;;4.15;2.75;;;13.10;99.90;;;;;;5021361;28;20057;-73
2022/06/01 07:53:16;;;;;;;2.17;1.85;;;13.10;99.90;;;;;;5025861;28;20459;-72
2022/06/01 07:55:42;;;;;;;4.25;3.33;;;13.20;99.90;;;;;;5020117;28;20104;-73
2022/06/01 07:58:08;;;;;;;2.50;2.22;;;13.10;99.90;;;;;;5022635;28;20041;-72
2022/06/01 08:00:38;;;;;;;2.45;2.25;;;13.10;99.90;;;;;;5021031;28;20088;-77
2022/06/01 08:03:12;;;;;;;2.55;2.10;;;13.10;99.90;;;;;;5021944;28;20115;-76
2022/06/01 08:05:41;;;;;;;1.73;1.63;;;13.00;99.90;;;;;;5022116;28;20597;-76
2022/06/01 08:08:07;;;;;;;1.92;1.80;;;13.00;99.90;;;;;;5020790;28;20567;-76
2022/06/01 08:10:33;;;;;;;2.10;1.90;;;13.00;99.90;;;;;;5022698;28;20045;-74
2022/06/01 08:13:08;;;;;;;2.13;1.83;;;13.10;99.90;;;;;;5022379;28;20046;-73
2022/06/01 08:15:42;;;;;;;1.98;1.88;;;13.10;99.90;;;;;;5036051;28;20049;-74
2022/06/01 08:18:13;;;;;;;1.73;1.63;;;13.20;99.90;;;;;;5023061;28;20458;-74
2022/06/01 08:20:42;;;;;;;1.58;1.48;;;13.20;99.90;;;;;;5022235;28;20045;-71
2022/06/01 08:23:10;;;;;;;1.48;1.35;;;13.30;99.90;;;;;;5022148;28;20452;-72
2022/06/01 08:25:41;;;;;;;1.55;1.45;;;13.30;99.90;;;;;;5019600;28;20103;-72
2022/06/01 08:28:08;;;;;;;1.75;1.65;;;13.40;99.90;;;;;;5022447;28;20045;-72
2022/06/01 08:30:35;;;;;;;2.45;1.75;;;13.50;99.90;;;;;;5022229;28;20095;-73
2022/06/01 08:33:02;;;;;;;1.45;1.35;;;13.50;99.90;;;;;;5020737;28;20141;-71
2022/06/01 08:35:33;;;;;;;1.85;1.75;;;13.60;99.90;;;;;;5018961;28;20136;-70
2022/06/01 08:38:00;;;;;;;1.38;1.05;;;13.70;99.90;;;;;;5020593;28;20436;-70
2022/06/01 08:40:29;;;;;;;1.35;1.27;;;13.80;99.90;;;;;;5020723;28;20479;-73
2022/06/01 08:43:09;;;;;;;1.73;1.63;;;13.80;99.90;;;;;;5019621;28;20069;-71
2022/06/01 08:45:42;;;;;;;3.00;1.80;;;13.80;99.90;;;;;;5019478;28;20049;-69
2022/06/01 08:48:15;;;;;;;1.85;1.75;;;13.70;99.90;;;;;;5019867;28;20533;-71
2022/06/01 08:50:41;;;;;;;1.77;1.67;;;13.70;99.90;;;;;;5020199;28;20041;-71
2022/06/01 08:53:08;;;;;;;2.58;2.38;;;13.70;99.90;;;;;;5003631;28;20041;-72
2022/06/01 08:56:09;;;;;;;2.00;1.80;;;13.80;99.90;;;;;;5021293;28;20045;-72
2022/06/01 08:58:44;;;;;;;2.55;2.30;;;13.80;99.90;;;;;;5021732;28;20766;-73
2022/06/01 09:01:15;;;;;;;2.50;1.90;;;13.80;99.90;;;;;;5020936;28;20128;-70
2022/06/01 09:03:48;;;;;;;3.00;2.22;;;13.80;99.90;;;;;;5021068;28;20066;-72
2022/06/01 09:06:27;;;;;;;1.30;1.30;;;13.90;99.90;;;;;;5020080;28;20120;-72
2022/06/01 09:09:02;;;;;;;2.67;2.35;;;14.00;99.90;;;;;;5021762;28;20495;-72
2022/06/01 09:11:42;;;;;;;1.73;1.40;;;14.00;99.90;;;;;;5021239;28;20046;-72
2022/06/01 09:14:19;;;;;;;2.10;1.75;;;13.90;99.90;;;;;;5021580;28;20053;-72
2022/06/01 09:16:48;;;;;;;2.17;1.33;;;14.00;99.90;;;;;;5019774;28;20045;-72
2022/06/01 09:19:19;;;;;;;1.88;1.73;;;14.00;99.90;;;;;;5021297;28;20302;-72
2022/06/01 09:22:57;;;;;;;2.50;1.48;;;13.90;99.90;;;;;;5020237;28;20056;-72
2022/06/01 09:24:52;;;;;;;1.50;1.40;;;14.00;99.90;;;;;;5011793;28;20088;-73
2022/06/01 09:27:38;;;;;;;1.08;0.98;;;14.00;99.90;;;;;;5016132;28;20068;-71
2022/06/01 09:30:21;;;;;;;2.17;1.85;;;13.90;99.90;;;;;;5018418;28;20049;-73
2022/06/01 09:33:20;;;;;;;2.67;1.63;;;14.00;99.90;;;;;;5018399;28;20041;-74
2022/06/01 09:36:00;;;;;;;2.58;1.98;;;14.00;99.90;;;;;;5017862;28;20412;-71
2022/06/01 09:38:47;;;;;;;1.83;1.58;;;14.10;99.90;;;;;;5019828;28;20045;-71
2022/06/01 09:41:27;;;;;;;2.78;1.80;;;14.20;99.90;;;;;;5019069;28;20041;-72
2022/06/01 09:43:56;;;;;;;1.85;1.63;;;14.30;99.90;;;;;;5018460;28;20510;-71
2022/06/01 09:46:33;;;;;;;1.50;1.40;;;14.40;99.90;;;;;;5019537;28;20049;-72
2022/06/01 09:49:05;;;;;;;1.88;1.70;;;14.40;99.90;;;;;;5020654;28;20504;-74
2022/06/01 09:51:34;;;;;;;0.88;0.88;;;14.40;99.90;;;;;;5016492;28;20048;-72
2022/06/01 09:54:24;;;;;;;2.95;1.60;;;14.40;99.90;;;;;;5021531;28;20037;-71
2022/06/01 09:56:50;;;;;;;1.67;1.58;;;14.40;99.90;;;;;;5019114;28;20041;-71
2022/06/01 10:07:49;;;;;;;1.38;1.33;;;14.20;99.90;;;;;;5022198;28;20151;-73
2022/06/01 10:10:25;;;;;;;3.00;1.65;;;14.10;99.90;;;;;;5029530;28;20041;-71
2022/06/01 10:13:01;;;;;;;2.50;1.80;;;13.90;99.90;;;;;;5021425;28;20328;-74
2022/06/01 10:15:40;;;;;;;2.53;2.30;;;13.80;99.90;;;;;;5022847;28;20052;-76
2022/06/01 10:18:30;;;;;;;3.28;2.97;;;13.70;99.90;;;;;;5021653;28;20128;-75
2022/06/01 10:21:25;;;;;;;2.38;1.92;;;13.60;99.90;;;;;;5004760;28;20056;-73
2022/06/01 10:24:04;;;;;;;2.83;2.63;;;13.40;99.90;;;;;;5022222;28;20088;-73
2022/06/01 10:26:36;;;;;;;3.05;2.83;;;13.30;99.90;;;;;;5018732;28;20036;-72
2022/06/01 10:29:14;;;;;;;1.92;1.73;;;13.30;99.90;;;;;;5021997;28;20101;-75
2022/06/01 10:31:48;;;;;;;2.08;1.90;;;13.20;99.90;;;;;;5022425;28;20045;-73
2022/06/01 10:34:44;;;;;;;2.28;2.05;;;13.20;99.90;;;;;;5021022;28;20034;-74
2022/06/01 10:37:18;;;;;;;2.05;1.88;;;13.30;99.90;;;;;;5018587;28;20096;-75
2022/06/01 10:40:13;;;;;;;3.72;2.72;;;13.20;99.90;;;;;;5023808;28;20124;-76
2022/06/01 10:43:18;;;;;;;4.55;3.22;;;13.20;99.90;;;;;;5020712;28;20103;-77
2022/06/01 10:45:54;;;;;;;1.85;1.75;;;13.10;99.90;;;;;;5021091;28;20053;-74
2022/06/01 10:48:28;;;;;;;2.90;2.70;;;13.10;99.90;;;;;;5020538;28;20053;-74
2022/06/01 10:50:54;;;;;;;2.10;1.95;;;13.10;99.90;;;;;;5021725;28;20084;-74
2022/06/01 10:53:50;;;;;;;3.70;2.53;;;13.10;99.90;;;;;;5023990;28;20104;-74
2022/06/01 10:56:19;;;;;;;2.55;2.35;;;13.10;99.90;;;;;;5022951;28;20053;-73
2022/06/01 10:58:45;;;;;;;2.50;2.05;;;13.10;99.90;;;;;;5022481;28;20042;-74
2022/06/01 11:01:36;;;;;;;2.60;2.40;;;13.10;99.90;;;;;;5023744;28;20076;-74
2022/06/01 11:04:37;;;;;;;3.13;2.67;;;13.20;99.90;;;;;;5021823;28;20054;-73
2022/06/01 11:07:34;;;;;;;2.83;2.50;;;13.20;99.90;;;;;;5020207;28;20046;-75
2022/06/01 11:10:12;;;;;;;4.72;3.50;;;13.20;99.90;;;;;;5022815;28;20049;-73
2022/06/01 11:12:46;;;;;;;3.03;2.08;;;13.20;99.90;;;;;;5022470;28;20049;-74
2022/06/01 11:15:29;;;;;;;2.33;2.13;;;13.10;99.90;;;;;;5022229;28;20049;-74
2022/06/01 11:18:04;;;;;;;5.15;3.50;;;13.00;99.90;;;;;;5023733;28;20095;-75
2022/06/01 11:20:54;;;;;;;7.57;3.30;;;12.80;99.90;;;;;;5023848;28;20136;-75
2022/06/01 11:23:42;;;;;;;8.15;2.90;;;12.60;99.90;;;;;;5023581;28;20120;-76
2022/06/01 11:26:45;;;;;;;4.85;2.95;;;12.50;99.90;;;;;;5017225;28;20064;-75
2022/06/01 11:29:35;;;;;;;3.58;3.25;;;12.30;99.90;;;;;;5016241;28;20054;-74
2022/06/01 11:32:11;;;;;;;3.30;3.03;;;12.10;99.90;;;;;;5019683;28;20077;-74
2022/06/01 11:34:57;;;;;;;6.78;3.60;;;12.00;99.90;;;;;;5016020;28;20033;-74
2022/06/01 11:37:30;;;;;;;5.07;3.60;;;12.00;99.90;;;;;;5014443;28;20045;-75
2022/06/01 11:40:03;;;;;;;6.68;4.50;;;12.00;99.90;;;;;;5015939;28;20045;-75
2022/06/01 11:43:01;;;;;;;4.30;3.90;;;11.90;99.90;;;;;;5015791;28;20034;-74
2022/06/01 11:45:33;;;;;;;4.97;3.65;;;12.00;99.90;;;;;;5021441;28;20052;-74
2022/06/01 11:48:09;;;;;;;4.45;4.05;;;12.00;99.90;;;;;;5014216;28;20100;-75
2022/06/01 11:50:48;;;;;;;4.00;3.60;;;12.00;99.90;;;;;;5013237;28;20064;-75
2022/06/01 11:53:36;;;;;;;4.60;3.25;;;12.10;99.90;;;;;;5018052;28;20080;-73
2022/06/01 11:56:22;;;;;;;6.20;3.47;;;12.20;99.90;;;;;;5021556;28;20049;-74
2022/06/01 11:59:15;;;;;;;4.40;3.78;;;12.30;99.90;;;;;;5021100;28;20063;-73
2022/06/01 12:01:41;;;;;;;4.50;3.92;;;12.40;99.90;;;;;;5019744;28;20048;-75
2022/06/01 12:04:19;;;;;;;6.18;3.85;;;12.50;99.90;;;;;;5016896;28;20559;-76
2022/06/01 12:06:54;;;;;;;3.67;3.30;;;12.60;99.90;;;;;;5012442;28;20532;-74
2022/06/01 12:09:57;;;;;;;2.42;2.22;;;12.70;99.90;;;;;;5020268;28;20034;-72
2022/06/01 12:12:23;;;;;;;;;;;12.90;99.90;;;;;;5012264;28;20081;-72
2022/06/01 12:14:58;;;;;;;3.15;2.95;;;13.00;99.90;;;;;;5020173;28;19968;-73
2022/06/01 12:17:27;;;;;;;3.40;2.83;;;13.00;99.90;;;;;;5020480;28;20041;-73
2022/06/01 12:20:11;;;;;;;3.72;2.53;;;13.20;99.90;;;;;;5019375;28;20029;-72
2022/06/01 12:29:07;;;;;;;9.27;3.33;;;13.40;99.90;;;;;;5018545;28;20311;-73
2022/06/01 12:31:39;;;;;;;1.80;1.70;;;13.50;99.90;;;;;;5012335;28;20067;-74
2022/06/01 12:34:14;;;;;;;4.07;3.37;;;13.60;99.90;;;;;;5018414;28;20124;-75
2022/06/01 12:36:47;;;;;;;2.90;2.25;;;13.70;99.90;;;;;;5021293;28;20049;-73
2022/06/01 12:39:20;;;;;;;3.80;3.47;;;13.80;99.90;;;;;;5020712;28;20055;-73
2022/06/01 12:41:48;;;;;;;;;;;14.00;99.90;;;;;;5018042;28;20084;-72
2022/06/01 12:44:16;;;;;;;3.72;3.42;;;14.10;99.90;;;;;;5020751;28;20565;-74
2022/06/01 12:46:48;;;;;;;3.75;2.88;;;14.20;99.90;;;;;;5021049;28;20038;-73
2022/06/01 12:49:23;;;;;;;3.67;2.22;;;14.20;99.90;;;;;;5020673;28;20051;-74
2022/06/01 12:51:53;;;;;;;3.60;2.42;;;14.30;99.90;;;;;;5017465;28;20037;-73
2022/06/01 12:54:37;;;;;;;5.13;3.42;;;14.40;99.90;;;;;;5019289;28;20499;-74
2022/06/01 12:57:07;;;;;;;4.60;2.78;;;14.50;99.90;;;;;;5019776;28;20045;-74
2022/06/01 12:59:37;;;;;;;4.13;2.78;;;14.60;99.90;;;;;;5020839;28;20065;-73
2022/06/01 13:02:10;;;;;;;4.82;4.10;;;14.70;99.90;;;;;;5019993;28;20080;-72
2022/06/01 13:04:36;;;;;;;2.40;2.10;;;14.70;99.90;;;;;;5019158;28;20112;-73
2022/06/01 13:07:02;;;;;;;3.85;3.35;;;14.70;99.90;;;;;;5010662;28;20041;-75
2022/06/01 13:09:31;;;;;;;4.32;3.30;;;14.70;99.90;;;;;;5020938;28;20041;-72
2022/06/01 13:11:59;;;;;;;3.72;3.08;;;14.70;99.90;;;;;;5020261;28;20451;-73
2022/06/01 13:14:26;;;;;;;2.72;2.45;;;14.70;99.90;;;;;;5018268;28;20083;-74
2022/06/01 13:16:52;;;;;;;1.55;1.45;;;14.70;99.90;;;;;;5020607;28;20041;-73
2022/06/01 13:19:31;;;;;;;2.20;1.85;;;14.60;99.90;;;;;;5019598;28;20056;-73
2022/06/01 13:22:14;;;;;;;1.65;1.55;;;14.40;99.90;;;;;;5017725;28;20056;-73
2022/06/01 13:24:57;;;;;;;2.20;2.10;;;14.30;99.90;;;;;;5020255;28;20038;-73
2022/06/01 13:27:24;;;;;;;1.35;1.25;;;14.20;99.90;;;;;;5021600;28;20049;-74
2022/06/01 13:29:58;;;;;;;1.85;1.70;;;14.10;99.90;;;;;;5024240;28;20087;-72
2022/06/01 13:32:34;;;;;;;2.83;1.80;;;14.00;99.90;;;;;;5021555;28;20037;-72
2022/06/01 13:35:41;;;;;;;2.80;1.63;;;13.90;99.90;;;;;;5024852;28;20037;-72